createdAt,value
2023-04-07T00:02:24.423Z,9.18
2023-04-07T00:05:10.068Z,9.80
2023-04-07T00:07:57.331Z,12.55
2023-04-07T00:10:43.662Z,8.05
2023-04-07T00:13:30.611Z,10.27
2023-04-07T00:16:16.838Z,7.15
2023-04-07T00:19:02.683Z,11.00
2023-04-07T00:21:48.424Z,11.07
2023-04-07T00:24:34.802Z,12.90
2023-04-07T00:27:20.719Z,22.63
2023-04-07T00:30:07.175Z,10.82
2023-04-07T00:32:53.087Z,7.40
2023-04-07T00:35:39.296Z,6.18
2023-04-07T00:38:25.132Z,10.65
2023-04-07T00:41:11.103Z,18.48
2023-04-07T00:43:56.556Z,9.95
2023-04-07T00:46:42.322Z,9.18
2023-04-07T00:49:28.682Z,11.65
2023-04-07T00:52:15.330Z,8.35
2023-04-07T00:55:01.158Z,8.30
2023-04-07T00:57:47.243Z,8.00
2023-04-07T01:00:42.321Z,11.65
2023-04-07T01:03:35.294Z,8.70
2023-04-07T01:06:25.031Z,8.25
2023-04-07T01:09:18.143Z,10.30
2023-04-07T01:12:18.357Z,7.43
2023-04-07T01:15:12.589Z,6.72
2023-04-07T01:18:11.179Z,6.15
2023-04-07T01:21:05.375Z,8.48
2023-04-07T01:24:17.996Z,9.25
2023-04-07T01:27:33.644Z,7.90
2023-04-07T01:30:20.697Z,10.63
2023-04-07T01:33:08.393Z,13.02
2023-04-07T01:35:55.153Z,8.90
2023-04-07T01:38:41.919Z,13.18
2023-04-07T01:41:28.607Z,6.53
2023-04-07T01:44:14.757Z,6.25
2023-04-07T01:47:01.560Z,8.18
2023-04-07T01:49:48.242Z,12.07
2023-04-07T01:52:36.213Z,9.43
2023-04-07T01:55:24.896Z,7.18
2023-04-07T01:58:10.622Z,12.50
2023-04-07T02:00:56.433Z,7.05
2023-04-07T02:03:49.363Z,9.20
2023-04-07T02:06:59.430Z,7.13
2023-04-07T02:09:47.231Z,9.30
2023-04-07T02:12:34.515Z,8.18
2023-04-07T02:15:21.053Z,7.43
2023-04-07T02:18:10.663Z,11.73
2023-04-07T02:20:57.374Z,6.93
2023-04-07T02:23:42.782Z,7.70
2023-04-07T02:26:28.312Z,6.85
2023-04-07T02:29:14.145Z,8.90
2023-04-07T02:31:59.461Z,16.23
2023-04-07T02:34:45.485Z,5.30
2023-04-07T02:37:31.012Z,12.57
2023-04-07T02:40:16.751Z,9.57
2023-04-07T02:43:02.326Z,7.60
2023-04-07T02:45:47.751Z,8.63
2023-04-07T02:48:32.983Z,11.55
2023-04-07T02:51:19.048Z,5.88
2023-04-07T02:54:04.574Z,7.40
2023-04-07T02:56:50.231Z,4.63
2023-04-07T02:59:36.344Z,5.63
2023-04-07T03:02:21.663Z,7.43
2023-04-07T03:05:08.235Z,13.38
2023-04-07T03:07:53.522Z,10.93
2023-04-07T03:10:39.446Z,18.05
2023-04-07T03:13:25.350Z,11.23
2023-04-07T03:16:11.028Z,5.47
2023-04-07T03:18:56.584Z,9.02
2023-04-07T03:21:42.052Z,10.80
2023-04-07T03:24:27.816Z,10.48
2023-04-07T03:27:13.659Z,8.82
2023-04-07T03:29:58.894Z,9.48
2023-04-07T03:32:44.605Z,11.18
2023-04-07T03:35:30.259Z,12.73
2023-04-07T03:38:15.945Z,9.30
2023-04-07T03:41:01.327Z,6.22
2023-04-07T03:43:46.863Z,8.98
2023-04-07T03:46:32.702Z,8.50
2023-04-07T03:49:18.136Z,5.82
2023-04-07T03:52:03.961Z,9.73
2023-04-07T03:54:49.556Z,7.13
2023-04-07T03:57:34.764Z,11.43
2023-04-07T04:00:20.642Z,10.57
2023-04-07T04:03:06.205Z,8.63
2023-04-07T04:05:52.229Z,9.90
2023-04-07T04:08:37.466Z,6.65
2023-04-07T04:11:23.301Z,11.70
2023-04-07T04:14:08.707Z,8.55
2023-04-07T04:16:54.676Z,13.55
2023-04-07T04:19:39.905Z,7.03
2023-04-07T04:22:25.721Z,8.05
2023-04-07T04:25:11.336Z,11.23
2023-04-07T04:27:56.737Z,5.90
2023-04-07T04:30:42.264Z,7.22
2023-04-07T04:33:28.185Z,7.82
2023-04-07T04:36:13.481Z,8.27
2023-04-07T04:38:58.815Z,15.02
2023-04-07T04:41:45.474Z,10.20
2023-04-07T04:44:30.797Z,7.95
2023-04-07T04:47:16.400Z,7.38
2023-04-07T04:50:02.170Z,10.07
2023-04-07T04:52:47.633Z,9.70
2023-04-07T04:55:33.339Z,12.13
2023-04-07T04:58:20.766Z,17.45
2023-04-07T05:01:06.532Z,10.40
2023-04-07T05:03:52.382Z,8.40
2023-04-07T05:06:38.147Z,12.10
2023-04-07T05:09:24.254Z,10.55
2023-04-07T05:12:09.733Z,11.30
2023-04-07T05:14:55.521Z,10.20
2023-04-07T05:17:42.011Z,8.35
2023-04-07T05:20:27.498Z,11.20
2023-04-07T05:23:12.956Z,8.02
2023-04-07T05:25:58.522Z,8.82
2023-04-07T05:28:44.100Z,11.70
2023-04-07T05:31:29.778Z,12.32
2023-04-07T05:34:15.622Z,10.52
2023-04-07T05:37:01.344Z,10.75
2023-04-07T05:39:46.820Z,11.70
2023-04-07T05:42:32.412Z,10.55
2023-04-07T05:45:18.304Z,11.57
2023-04-07T05:48:03.746Z,9.63
2023-04-07T05:50:49.487Z,13.68
2023-04-07T05:53:35.107Z,13.27
2023-04-07T05:56:21.848Z,11.25
2023-04-07T05:59:07.256Z,16.77
2023-04-07T06:01:52.934Z,8.88
2023-04-07T06:04:39.611Z,13.15
2023-04-07T06:07:25.620Z,9.88
2023-04-07T06:10:11.541Z,15.23
2023-04-07T06:12:57.113Z,13.60
2023-04-07T06:15:44.239Z,8.85
2023-04-07T06:18:29.724Z,10.05
2023-04-07T06:21:15.776Z,16.10
2023-04-07T06:24:01.200Z,8.65
2023-04-07T06:26:46.730Z,12.35
2023-04-07T06:29:33.865Z,11.18
2023-04-07T06:32:19.063Z,8.70
2023-04-07T06:35:04.773Z,10.68
2023-04-07T06:37:50.254Z,17.10
2023-04-07T06:40:35.640Z,13.13
2023-04-07T06:43:21.538Z,10.68
2023-04-07T06:46:07.270Z,11.57
2023-04-07T06:48:52.956Z,9.80
2023-04-07T06:51:38.175Z,8.45
2023-04-07T06:54:23.587Z,9.65
2023-04-07T06:57:12.061Z,11.13
2023-04-07T06:59:57.824Z,9.30
2023-04-07T07:02:43.425Z,11.75
2023-04-07T07:05:29.377Z,10.07
2023-04-07T07:08:14.931Z,9.65
2023-04-07T07:11:00.741Z,7.20
2023-04-07T07:13:46.843Z,8.35
2023-04-07T07:16:33.224Z,8.18
2023-04-07T07:19:18.993Z,8.07
2023-04-07T07:22:04.835Z,10.18
2023-04-07T07:24:51.123Z,9.38
2023-04-07T07:27:37.020Z,13.50
2023-04-07T07:30:24.053Z,10.77
2023-04-07T07:33:10.015Z,11.82
2023-04-07T07:35:56.004Z,11.13
2023-04-07T07:38:41.734Z,8.65
2023-04-07T07:41:27.450Z,12.98
2023-04-07T07:44:13.097Z,11.75
2023-04-07T07:46:58.606Z,9.18
2023-04-07T07:49:44.104Z,14.07
2023-04-07T07:52:29.496Z,10.32
2023-04-07T07:55:15.194Z,11.07
2023-04-07T07:58:01.438Z,10.30
2023-04-07T08:00:47.038Z,10.63
2023-04-07T08:03:32.704Z,10.25
2023-04-07T08:06:18.734Z,11.15
2023-04-07T08:09:04.462Z,9.32
2023-04-07T08:11:51.140Z,11.82
2023-04-07T08:14:37.061Z,8.70
2023-04-07T08:17:22.555Z,11.15
2023-04-07T08:20:08.717Z,12.45
2023-04-07T08:22:54.103Z,10.25
2023-04-07T08:25:42.129Z,9.80
2023-04-07T08:28:27.740Z,8.10
2023-04-07T08:31:13.593Z,8.68
2023-04-07T08:33:59.505Z,10.93
2023-04-07T08:36:45.136Z,12.90
2023-04-07T08:39:30.668Z,8.35
2023-04-07T08:42:18.688Z,9.63
2023-04-07T08:45:06.492Z,10.80
2023-04-07T08:47:56.953Z,10.77
2023-04-07T08:50:45.559Z,11.32
2023-04-07T08:53:41.663Z,10.68
2023-04-07T08:56:27.679Z,11.07
2023-04-07T08:59:15.283Z,8.70
2023-04-07T09:02:01.122Z,9.43
2023-04-07T09:04:47.498Z,12.45
2023-04-07T09:07:35.398Z,13.57
2023-04-07T09:10:21.142Z,10.88
2023-04-07T09:13:06.989Z,11.82
2023-04-07T09:15:52.851Z,12.68
2023-04-07T09:18:38.439Z,9.95
2023-04-07T09:21:23.936Z,8.38
2023-04-07T09:24:31.929Z,8.23
2023-04-07T09:27:19.270Z,7.65
2023-04-07T09:30:15.987Z,11.55
2023-04-07T09:33:02.508Z,11.98
2023-04-07T09:35:54.720Z,16.58
2023-04-07T09:38:41.802Z,9.15
2023-04-07T09:41:28.292Z,6.45
2023-04-07T09:44:15.584Z,7.68
2023-04-07T09:47:01.504Z,8.05
2023-04-07T09:49:56.008Z,10.63
2023-04-07T09:52:54.244Z,6.85
2023-04-07T09:55:43.947Z,10.98
2023-04-07T09:58:29.637Z,6.43
2023-04-07T10:01:19.090Z,7.50
2023-04-07T10:04:05.838Z,5.30
2023-04-07T10:06:56.692Z,4.05
2023-04-07T10:09:42.597Z,8.45
2023-04-07T10:12:31.208Z,6.20
2023-04-07T10:15:17.201Z,7.28
2023-04-07T10:18:06.480Z,7.03
2023-04-07T10:20:54.090Z,8.95
2023-04-07T10:24:10.617Z,8.75
2023-04-07T10:27:08.207Z,7.10
2023-04-07T10:29:55.430Z,6.13
2023-04-07T10:32:51.861Z,5.15
2023-04-07T10:36:06.636Z,5.72
2023-04-07T10:39:12.282Z,5.45
2023-04-07T10:41:58.919Z,4.45
2023-04-07T10:44:49.699Z,7.75
2023-04-07T10:47:55.982Z,5.10
2023-04-07T10:50:42.674Z,7.85
2023-04-07T10:53:28.043Z,5.63
2023-04-07T10:56:13.513Z,3.95
2023-04-07T10:59:27.820Z,3.20
2023-04-07T11:02:13.825Z,5.78
2023-04-07T11:04:59.605Z,3.13
2023-04-07T11:07:48.506Z,3.10
2023-04-07T11:10:35.806Z,4.05
2023-04-07T11:13:21.336Z,5.07
2023-04-07T11:16:08.062Z,4.18
2023-04-07T11:18:57.654Z,4.97
2023-04-07T11:21:43.368Z,4.15
2023-04-07T11:24:39.266Z,2.53
2023-04-07T11:27:25.579Z,4.55
2023-04-07T11:30:11.626Z,6.78
2023-04-07T11:32:57.506Z,4.65
2023-04-07T11:35:51.948Z,4.65
2023-04-07T11:38:38.828Z,4.00
2023-04-07T11:41:27.317Z,3.97
2023-04-07T11:44:14.574Z,3.45
2023-04-07T11:47:03.679Z,3.92
2023-04-07T11:49:49.677Z,4.75
2023-04-07T11:52:46.439Z,4.38
2023-04-07T11:55:32.505Z,2.50
2023-04-07T11:58:18.084Z,3.55
2023-04-07T12:01:08.458Z,4.05
2023-04-07T12:04:03.073Z,2.67
2023-04-07T12:06:49.623Z,2.97
2023-04-07T12:09:38.386Z,3.70
2023-04-07T12:12:30.492Z,2.88
2023-04-07T12:15:16.729Z,3.80
2023-04-07T12:18:03.378Z,4.35
2023-04-07T12:20:52.534Z,4.75
2023-04-07T12:23:37.671Z,3.35
2023-04-07T12:26:23.535Z,4.88
2023-04-07T12:29:09.467Z,5.20
2023-04-07T12:31:55.146Z,2.40
2023-04-07T12:34:40.964Z,2.40
2023-04-07T12:37:26.526Z,4.47
2023-04-07T12:40:12.865Z,3.35
2023-04-07T12:42:58.508Z,5.68
2023-04-07T12:45:44.164Z,3.78
2023-04-07T12:48:29.765Z,3.10
2023-04-07T12:51:16.402Z,1.98
2023-04-07T12:54:02.020Z,2.15
2023-04-07T12:56:47.843Z,1.83
2023-04-07T12:59:33.283Z,3.28
2023-04-07T13:02:19.338Z,3.72
2023-04-07T13:05:05.931Z,4.50
2023-04-07T13:07:51.488Z,4.60
2023-04-07T13:10:37.341Z,1.92
2023-04-07T13:13:23.609Z,3.80
2023-04-07T13:16:09.094Z,3.80
2023-04-07T13:18:54.889Z,3.53
2023-04-07T13:21:46.834Z,3.47
2023-04-07T13:24:33.605Z,4.55
2023-04-07T13:27:19.214Z,2.03
2023-04-07T13:30:05.922Z,3.55
2023-04-07T13:32:52.253Z,1.92
2023-04-07T13:35:37.967Z,4.13
2023-04-07T13:38:24.162Z,3.97
2023-04-07T13:41:09.997Z,3.45
2023-04-07T13:43:56.561Z,2.47
2023-04-07T13:46:42.109Z,2.03
2023-04-07T13:49:28.108Z,3.20
2023-04-07T13:52:14.072Z,0.90
2023-04-07T13:54:59.431Z,1.92
2023-04-07T13:57:44.823Z,3.25
2023-04-07T14:00:30.642Z,1.75
2023-04-07T14:03:16.538Z,8.02
2023-04-07T14:06:02.912Z,4.30
2023-04-07T14:08:48.638Z,3.53
2023-04-07T14:11:35.076Z,3.70
2023-04-07T14:14:20.415Z,3.35
2023-04-07T14:17:06.189Z,2.90
2023-04-07T14:19:51.763Z,5.43
2023-04-07T14:22:37.303Z,2.65
2023-04-07T14:25:23.176Z,3.75
2023-04-07T14:28:09.600Z,3.53
2023-04-07T14:30:55.396Z,2.55
2023-04-07T14:33:41.159Z,3.60
2023-04-07T14:36:27.337Z,5.78
2023-04-07T14:39:13.371Z,5.30
2023-04-07T14:41:59.215Z,3.30
2023-04-07T14:44:44.962Z,2.88
2023-04-07T14:47:30.824Z,3.63
2023-04-07T14:50:16.976Z,2.60
2023-04-07T14:53:03.410Z,2.03
2023-04-07T14:55:48.805Z,3.33
2023-04-07T14:58:37.425Z,3.95
2023-04-07T15:01:23.366Z,5.47
2023-04-07T15:04:09.085Z,1.50
2023-04-07T15:06:54.924Z,2.92
2023-04-07T15:09:42.134Z,5.05
2023-04-07T15:12:29.868Z,2.38
2023-04-07T15:15:16.409Z,5.40
2023-04-07T15:18:04.015Z,2.65
2023-04-07T15:20:50.399Z,1.50
2023-04-07T15:23:37.978Z,3.25
2023-04-07T15:26:23.690Z,1.63
2023-04-07T15:29:10.799Z,3.58
2023-04-07T15:31:56.394Z,3.35
2023-04-07T15:34:41.783Z,3.78
2023-04-07T15:37:27.688Z,1.70
2023-04-07T15:40:13.158Z,3.30
2023-04-07T15:42:58.656Z,2.03
2023-04-07T15:45:45.064Z,4.50
2023-04-07T15:48:30.831Z,1.92
2023-04-07T15:51:16.938Z,5.82
2023-04-07T15:54:02.748Z,3.80
2023-04-07T15:56:48.705Z,3.53
2023-04-07T15:59:36.075Z,3.05
2023-04-07T16:02:21.529Z,2.38
2023-04-07T16:05:08.146Z,4.95
2023-04-07T16:07:53.796Z,5.05
2023-04-07T16:10:39.316Z,3.08
2023-04-07T16:13:24.930Z,3.70
2023-04-07T16:16:10.936Z,2.25
2023-04-07T16:18:56.641Z,5.13
2023-04-07T16:21:42.159Z,1.65
2023-04-07T16:24:27.631Z,1.95
2023-04-07T16:27:13.137Z,4.45
2023-04-07T16:29:59.013Z,3.05
2023-04-07T16:32:45.094Z,4.00
2023-04-07T16:35:31.948Z,1.92
2023-04-07T16:38:17.913Z,2.03
2023-04-07T16:41:04.797Z,2.53
2023-04-07T16:43:51.181Z,2.97
2023-04-07T16:46:37.513Z,4.13
2023-04-07T16:49:23.213Z,4.18
2023-04-07T16:52:11.788Z,3.85
2023-04-07T16:54:58.167Z,3.15
2023-04-07T16:57:43.577Z,1.67
2023-04-07T17:00:29.876Z,2.25
2023-04-07T17:03:15.867Z,2.75
2023-04-07T17:06:05.603Z,4.20
2023-04-07T17:08:51.176Z,3.58
2023-04-07T17:11:36.835Z,2.00
2023-04-07T17:14:22.619Z,5.03
2023-04-07T17:17:08.483Z,1.48
2023-04-07T17:19:57.183Z,1.40
2023-04-07T17:22:43.830Z,3.95
2023-04-07T17:25:29.182Z,5.15
2023-04-07T17:28:14.708Z,6.03
2023-04-07T17:31:00.434Z,5.85
2023-04-07T17:33:47.729Z,5.18
2023-04-07T17:36:34.316Z,4.35
2023-04-07T17:39:19.762Z,2.67
2023-04-07T17:42:05.054Z,2.75
2023-04-07T17:44:54.015Z,3.00
2023-04-07T17:47:40.395Z,3.47
2023-04-07T17:50:26.359Z,4.18
2023-04-07T17:53:11.658Z,4.38
2023-04-07T17:55:57.341Z,2.85
2023-04-07T17:58:43.859Z,1.83
2023-04-07T18:01:30.503Z,3.90
2023-04-07T18:04:17.054Z,1.85
2023-04-07T18:07:03.406Z,4.00
2023-04-07T18:09:49.224Z,4.35
2023-04-07T18:12:35.452Z,5.45
2023-04-07T18:15:21.168Z,6.18
2023-04-07T18:18:06.999Z,4.28
2023-04-07T18:20:52.651Z,2.55
2023-04-07T18:23:38.198Z,4.55
2023-04-07T18:26:23.750Z,5.50
2023-04-07T18:29:10.766Z,4.97
2023-04-07T18:31:56.023Z,6.35
2023-04-07T18:34:41.690Z,4.55
2023-04-07T18:37:29.605Z,4.20
2023-04-07T18:40:16.273Z,6.45
2023-04-07T18:43:02.564Z,3.78
2023-04-07T18:45:47.949Z,5.80
2023-04-07T18:48:33.397Z,6.50
2023-04-07T18:51:18.806Z,8.85
2023-04-07T18:54:04.477Z,6.00
2023-04-07T18:56:49.777Z,2.38
2023-04-07T18:59:35.276Z,2.33
2023-04-07T19:02:20.940Z,4.13
2023-04-07T19:05:06.766Z,7.35
2023-04-07T19:07:52.168Z,6.20
2023-04-07T19:10:37.825Z,4.10
2023-04-07T19:13:23.206Z,5.13
2023-04-07T19:16:09.818Z,6.97
2023-04-07T19:18:55.632Z,3.95
2023-04-07T19:21:41.283Z,4.68
2023-04-07T19:24:26.893Z,4.55
2023-04-07T19:27:13.628Z,5.03
2023-04-07T19:30:02.528Z,4.57
2023-04-07T19:32:59.236Z,3.90
2023-04-07T19:35:46.869Z,5.88
2023-04-07T19:38:36.907Z,5.78
2023-04-07T19:41:24.829Z,6.07
2023-04-07T19:44:22.316Z,7.40
2023-04-07T19:47:09.676Z,8.02
2023-04-07T19:49:58.191Z,8.85
2023-04-07T19:52:45.565Z,12.43
2023-04-07T19:55:34.559Z,9.70
2023-04-07T19:58:22.003Z,12.65
2023-04-07T20:01:22.763Z,13.35
2023-04-07T20:04:08.883Z,10.43
2023-04-07T20:06:54.627Z,9.27
2023-04-07T20:09:40.539Z,12.63
2023-04-07T20:12:26.174Z,10.70
2023-04-07T20:15:12.009Z,10.15
2023-04-07T20:18:00.792Z,11.18
2023-04-07T20:21:38.070Z,9.38
2023-04-07T20:24:24.480Z,12.73
2023-04-07T20:27:10.675Z,8.27
2023-04-07T20:30:19.812Z,11.07
2023-04-07T20:33:14.804Z,11.15
2023-04-07T20:36:11.036Z,10.48
2023-04-07T20:39:19.535Z,10.98
2023-04-07T20:42:14.096Z,9.43
2023-04-07T20:45:07.100Z,13.55
2023-04-07T20:48:28.372Z,14.45
2023-04-07T20:51:31.810Z,14.90
2023-04-07T20:54:34.911Z,14.80
2023-04-07T20:57:24.502Z,14.80
2023-04-07T21:00:32.170Z,13.57
2023-04-07T21:04:08.646Z,11.38
2023-04-07T21:07:03.702Z,13.95
2023-04-07T21:09:59.865Z,13.40
2023-04-07T21:12:50.953Z,15.90
2023-04-07T21:16:06.402Z,10.63
2023-04-07T21:19:04.073Z,14.65
2023-04-07T21:21:51.670Z,15.27
2023-04-07T21:24:42.560Z,16.40
2023-04-07T21:27:30.872Z,15.02
2023-04-07T21:30:18.194Z,13.90
2023-04-07T21:33:04.108Z,15.13
2023-04-07T21:36:23.474Z,15.57
2023-04-07T21:39:09.378Z,15.00
2023-04-07T21:41:55.271Z,21.08
2023-04-07T21:44:40.710Z,25.85
2023-04-07T21:47:26.858Z,24.48
2023-04-07T21:50:12.752Z,17.67
2023-04-07T21:52:58.909Z,19.10
2023-04-07T21:55:45.217Z,14.75
2023-04-07T21:58:31.248Z,17.10
2023-04-07T22:01:18.009Z,16.58
2023-04-07T22:04:03.518Z,17.98
2023-04-07T22:06:50.000Z,15.60
2023-04-07T22:09:35.544Z,18.15
2023-04-07T22:12:21.781Z,17.05
2023-04-07T22:15:08.889Z,11.80
2023-04-07T22:17:54.707Z,15.98
2023-04-07T22:20:40.656Z,14.40
2023-04-07T22:23:26.867Z,16.73
2023-04-07T22:26:28.840Z,18.77
2023-04-07T22:29:16.982Z,14.18
2023-04-07T22:32:03.525Z,9.77
2023-04-07T22:34:49.728Z,14.63
2023-04-07T22:37:46.385Z,11.20
2023-04-07T22:40:47.348Z,12.70
2023-04-07T22:44:03.933Z,12.35
2023-04-07T22:47:03.499Z,11.27
2023-04-07T22:50:20.341Z,9.90
2023-04-07T22:53:07.609Z,12.52
2023-04-07T22:55:54.106Z,13.05
2023-04-07T22:58:39.974Z,11.10
2023-04-07T23:01:26.816Z,10.35
2023-04-07T23:04:12.769Z,12.35
2023-04-07T23:07:04.799Z,11.40
2023-04-07T23:10:07.123Z,15.73
2023-04-07T23:12:55.362Z,13.87
2023-04-07T23:15:48.712Z,14.48
2023-04-07T23:18:46.124Z,15.38
2023-04-07T23:21:40.442Z,18.27
2023-04-07T23:25:09.580Z,17.23
2023-04-07T23:28:17.231Z,18.40
2023-04-07T23:31:42.003Z,18.50
2023-04-07T23:35:07.444Z,21.73
2023-04-07T23:41:18.514Z,16.98
2023-04-07T23:44:13.563Z,20.92
2023-04-07T23:47:06.455Z,23.15
2023-04-07T23:49:57.868Z,18.92
2023-04-07T23:52:45.636Z,17.33
2023-04-07T23:55:32.949Z,21.85
2023-04-07T23:58:32.173Z,20.58
